createdAt,value
2022-10-23T00:01:27.331Z,16.87
2022-10-23T00:03:58.800Z,9.87
2022-10-23T00:06:28.639Z,24.57
2022-10-23T00:08:58.352Z,10.30
2022-10-23T00:11:29.109Z,11.47
2022-10-23T00:13:59.495Z,13.77
2022-10-23T00:16:28.726Z,19.03
2022-10-23T00:18:57.101Z,8.73
2022-10-23T00:21:26.032Z,10.20
2022-10-23T00:23:54.847Z,9.93
2022-10-23T00:26:24.821Z,12.07
2022-10-23T00:28:54.674Z,12.57
2022-10-23T00:31:29.143Z,15.50
2022-10-23T00:33:57.855Z,15.27
2022-10-23T00:36:26.326Z,15.27
2022-10-23T00:38:55.131Z,22.33
2022-10-23T00:41:28.836Z,16.10
2022-10-23T00:44:00.878Z,17.63
2022-10-23T00:46:29.371Z,13.40
2022-10-23T00:48:58.748Z,15.80
2022-10-23T00:51:30.261Z,13.00
2022-10-23T00:54:22.845Z,16.43
2022-10-23T00:56:53.802Z,13.83
2022-10-23T00:59:22.220Z,15.47
2022-10-23T01:01:50.929Z,12.23
2022-10-23T01:04:20.169Z,14.83
2022-10-23T01:06:57.131Z,10.97
2022-10-23T01:09:32.941Z,22.17
2022-10-23T01:12:16.628Z,14.50
2022-10-23T01:15:08.323Z,17.23
2022-10-23T01:17:42.474Z,13.83
2022-10-23T01:20:25.422Z,14.63
2022-10-23T01:23:13.719Z,16.20
2022-10-23T01:26:10.064Z,9.33
2022-10-23T01:28:46.001Z,18.77
2022-10-23T01:31:19.108Z,20.17
2022-10-23T01:33:53.460Z,14.90
2022-10-23T01:36:31.685Z,16.77
2022-10-23T01:39:06.357Z,14.67
2022-10-23T01:41:40.576Z,21.00
2022-10-23T01:44:15.903Z,23.23
2022-10-23T01:46:48.440Z,16.80
2022-10-23T01:49:18.976Z,22.50
2022-10-23T01:51:55.289Z,12.17
2022-10-23T01:54:26.924Z,17.30
2022-10-23T01:56:56.519Z,15.63
2022-10-23T01:59:35.887Z,19.10
2022-10-23T02:02:07.940Z,25.83
2022-10-23T02:04:41.081Z,21.53
2022-10-23T02:07:09.871Z,20.90
2022-10-23T02:09:38.716Z,25.23
2022-10-23T02:12:10.158Z,24.60
2022-10-23T02:14:49.773Z,27.40
2022-10-23T02:17:28.967Z,20.53
2022-10-23T02:20:03.901Z,23.87
2022-10-23T02:22:39.993Z,19.73
2022-10-23T02:25:15.052Z,15.13
2022-10-23T02:27:48.330Z,21.20
2022-10-23T02:30:21.303Z,21.10
2022-10-23T02:32:58.193Z,15.80
2022-10-23T02:35:27.566Z,21.23
2022-10-23T02:38:05.349Z,21.70
2022-10-23T02:40:40.017Z,16.33
2022-10-23T02:43:15.189Z,18.67
2022-10-23T02:45:55.260Z,17.67
2022-10-23T02:48:28.283Z,19.63
2022-10-23T02:51:07.417Z,23.70
2022-10-23T02:53:44.758Z,18.57
2022-10-23T02:56:21.382Z,20.93
2022-10-23T02:58:57.312Z,25.03
2022-10-23T03:01:34.265Z,21.53
2022-10-23T03:04:06.654Z,16.80
2022-10-23T03:06:35.584Z,22.27
2022-10-23T03:09:06.585Z,16.40
2022-10-23T03:11:35.040Z,20.40
2022-10-23T03:14:04.239Z,15.90
2022-10-23T03:16:33.982Z,20.90
2022-10-23T03:19:02.706Z,24.07
2022-10-23T03:21:31.769Z,18.13
2022-10-23T03:24:00.036Z,14.17
2022-10-23T03:26:38.437Z,17.70
2022-10-23T03:29:07.019Z,28.20
2022-10-23T03:31:43.426Z,15.97
2022-10-23T03:34:11.919Z,21.00
2022-10-23T03:36:42.819Z,17.77
2022-10-23T03:39:12.217Z,16.27
2022-10-23T03:41:40.567Z,19.83
2022-10-23T03:44:09.263Z,25.97
2022-10-23T03:46:37.627Z,13.80
2022-10-23T03:49:07.635Z,16.13
2022-10-23T03:51:36.024Z,19.70
2022-10-23T03:54:05.544Z,12.70
2022-10-23T03:56:33.936Z,11.97
2022-10-23T03:59:02.635Z,16.30
2022-10-23T04:01:31.258Z,25.60
2022-10-23T04:03:59.780Z,16.63
2022-10-23T04:06:29.983Z,19.93
2022-10-23T04:09:00.919Z,18.17
2022-10-23T04:11:29.490Z,12.77
2022-10-23T04:13:58.078Z,12.17
2022-10-23T04:16:27.375Z,16.40
2022-10-23T04:18:55.770Z,21.07
2022-10-23T04:21:24.387Z,15.23
2022-10-23T04:23:57.763Z,18.30
2022-10-23T04:26:26.246Z,17.57
2022-10-23T04:28:54.605Z,19.43
2022-10-23T04:31:22.821Z,13.47
2022-10-23T04:33:51.129Z,16.17
2022-10-23T04:36:33.125Z,18.43
2022-10-23T04:39:12.144Z,16.83
2022-10-23T04:41:40.564Z,25.03
2022-10-23T04:44:09.463Z,14.73
2022-10-23T04:46:40.203Z,13.33
2022-10-23T04:49:08.619Z,15.97
2022-10-23T04:52:12.393Z,16.17
2022-10-23T04:55:00.521Z,19.13
2022-10-23T04:57:33.390Z,12.33
2022-10-23T05:00:07.445Z,17.27
2022-10-23T05:03:05.372Z,14.87
2022-10-23T05:05:38.795Z,15.47
2022-10-23T05:08:22.862Z,12.53
2022-10-23T05:11:11.568Z,11.00
2022-10-23T05:13:44.928Z,14.83
2022-10-23T05:16:21.492Z,12.00
2022-10-23T05:18:50.508Z,14.73
2022-10-23T05:21:25.971Z,15.47
2022-10-23T05:23:55.246Z,14.20
2022-10-23T05:26:26.160Z,11.87
2022-10-23T05:28:55.004Z,11.40
2022-10-23T05:31:25.763Z,12.10
2022-10-23T05:33:58.096Z,12.10
2022-10-23T05:36:27.928Z,8.13
2022-10-23T05:38:59.123Z,15.67
2022-10-23T05:41:29.516Z,17.73
2022-10-23T05:44:00.229Z,11.10
2022-10-23T05:46:47.253Z,13.80
2022-10-23T05:49:48.011Z,14.17
2022-10-23T05:52:30.484Z,12.97
2022-10-23T05:55:14.012Z,18.63
2022-10-23T05:58:23.675Z,9.70
2022-10-23T06:01:07.619Z,12.87
2022-10-23T06:04:12.402Z,13.83
2022-10-23T06:07:07.099Z,15.00
2022-10-23T06:09:35.643Z,13.03
2022-10-23T06:12:04.212Z,7.53
2022-10-23T06:14:35.257Z,13.17
2022-10-23T06:17:04.152Z,17.93
2022-10-23T06:19:35.854Z,15.23
2022-10-23T06:22:05.941Z,17.53
2022-10-23T06:24:48.133Z,15.87
2022-10-23T06:27:21.870Z,14.03
2022-10-23T06:29:52.057Z,10.20
2022-10-23T06:32:21.227Z,11.77
2022-10-23T06:35:02.621Z,10.90
2022-10-23T06:37:31.043Z,12.50
2022-10-23T06:40:10.937Z,10.33
2022-10-23T06:42:53.256Z,9.00
2022-10-23T06:45:41.921Z,12.40
2022-10-23T06:48:16.687Z,9.13
2022-10-23T06:50:45.096Z,11.73
2022-10-23T06:53:17.037Z,12.00
2022-10-23T06:55:54.487Z,14.50
2022-10-23T06:58:24.215Z,11.70
2022-10-23T07:01:16.585Z,15.10
2022-10-23T07:03:46.367Z,8.70
2022-10-23T07:06:16.393Z,11.57
2022-10-23T07:08:44.861Z,9.23
2022-10-23T07:11:36.435Z,10.53
2022-10-23T07:14:05.000Z,13.07
2022-10-23T07:16:35.360Z,10.33
2022-10-23T07:19:04.104Z,12.50
2022-10-23T07:21:48.415Z,7.53
2022-10-23T07:24:38.579Z,11.00
2022-10-23T07:27:16.149Z,8.47
2022-10-23T07:29:45.348Z,6.53
2022-10-23T07:32:15.197Z,7.57
2022-10-23T07:34:46.726Z,9.03
2022-10-23T07:37:22.878Z,12.20
2022-10-23T07:39:52.285Z,10.07
2022-10-23T07:42:20.774Z,8.00
2022-10-23T07:44:49.649Z,7.50
2022-10-23T07:47:19.690Z,5.57
2022-10-23T07:49:51.876Z,10.37
2022-10-23T07:52:22.364Z,16.13
2022-10-23T07:55:09.902Z,12.80
2022-10-23T07:57:41.091Z,8.07
2022-10-23T08:00:32.585Z,6.00
2022-10-23T08:03:13.566Z,10.87
2022-10-23T08:05:42.522Z,9.33
2022-10-23T08:08:11.775Z,9.93
2022-10-23T08:10:42.255Z,7.57
2022-10-23T08:13:16.031Z,5.47
2022-10-23T08:15:56.170Z,8.97
2022-10-23T08:18:52.651Z,11.03
2022-10-23T08:21:21.517Z,6.50
2022-10-23T08:23:54.529Z,7.43
2022-10-23T08:26:24.656Z,9.67
2022-10-23T08:28:53.737Z,9.67
2022-10-23T08:31:24.711Z,8.60
2022-10-23T08:34:24.346Z,6.40
2022-10-23T08:36:54.452Z,7.90
2022-10-23T08:39:23.194Z,6.37
2022-10-23T08:42:22.492Z,5.30
2022-10-23T08:45:07.601Z,7.40
2022-10-23T08:47:43.526Z,6.83
2022-10-23T08:50:37.759Z,7.23
2022-10-23T08:53:16.697Z,8.70
2022-10-23T08:55:48.319Z,6.20
2022-10-23T08:58:21.345Z,6.53
2022-10-23T09:00:51.517Z,13.83
2022-10-23T09:03:20.160Z,8.67
2022-10-23T09:06:13.385Z,6.10
2022-10-23T09:08:55.084Z,7.87
2022-10-23T09:11:30.216Z,7.53
2022-10-23T09:14:21.802Z,8.93
2022-10-23T09:17:01.620Z,11.37
2022-10-23T09:19:32.200Z,11.90
2022-10-23T09:22:02.449Z,4.57
2022-10-23T09:24:31.843Z,10.43
2022-10-23T09:27:01.776Z,8.80
2022-10-23T09:29:33.127Z,6.53
2022-10-23T09:32:04.496Z,6.10
2022-10-23T09:34:35.149Z,6.27
2022-10-23T09:37:19.436Z,8.67
2022-10-23T09:39:49.608Z,3.73
2022-10-23T09:42:24.357Z,9.83
2022-10-23T09:44:55.331Z,7.53
2022-10-23T09:47:25.918Z,9.00
2022-10-23T09:49:56.510Z,7.17
2022-10-23T09:52:33.871Z,5.10
2022-10-23T09:55:04.868Z,7.87
2022-10-23T09:57:37.220Z,9.23
2022-10-23T10:00:17.195Z,10.43
2022-10-23T10:02:57.460Z,8.77
2022-10-23T10:05:57.761Z,9.37
2022-10-23T10:08:36.680Z,5.77
2022-10-23T10:11:11.796Z,10.10
2022-10-23T10:14:19.218Z,5.40
2022-10-23T10:16:53.198Z,6.27
2022-10-23T10:19:37.563Z,6.00
2022-10-23T10:22:17.588Z,6.70
2022-10-23T10:24:55.365Z,8.27
2022-10-23T10:27:38.971Z,7.47
2022-10-23T10:30:14.309Z,6.80
2022-10-23T10:32:48.491Z,5.00
2022-10-23T10:35:27.166Z,5.10
2022-10-23T10:38:26.518Z,6.67
2022-10-23T10:41:15.650Z,6.33
2022-10-23T10:43:52.794Z,5.40
2022-10-23T10:46:32.614Z,7.43
2022-10-23T10:49:03.107Z,5.47
2022-10-23T10:52:02.646Z,9.57
2022-10-23T10:54:45.292Z,3.90
2022-10-23T10:57:23.319Z,6.53
2022-10-23T10:59:54.743Z,11.60
2022-10-23T11:02:28.962Z,7.47
2022-10-23T11:05:04.744Z,7.07
2022-10-23T11:07:39.425Z,4.53
2022-10-23T11:10:17.608Z,5.53
2022-10-23T11:12:48.765Z,6.57
2022-10-23T11:15:20.649Z,3.47
2022-10-23T11:17:52.509Z,7.67
2022-10-23T11:20:43.128Z,7.57
2022-10-23T11:23:31.763Z,9.60
2022-10-23T11:26:19.787Z,5.30
2022-10-23T11:29:25.625Z,5.53
2022-10-23T11:32:08.270Z,9.20
2022-10-23T11:35:07.101Z,6.53
2022-10-23T11:37:35.818Z,10.30
2022-10-23T11:40:22.685Z,15.00
2022-10-23T11:42:52.293Z,7.47
2022-10-23T11:45:31.385Z,10.77
2022-10-23T11:48:01.174Z,8.93
2022-10-23T11:50:35.809Z,10.83
2022-10-23T11:53:15.155Z,6.63
2022-10-23T11:56:02.386Z,6.17
2022-10-23T11:58:43.060Z,5.60
2022-10-23T12:01:29.193Z,6.10
2022-10-23T12:04:04.033Z,8.63
2022-10-23T12:06:40.513Z,8.97
2022-10-23T12:09:25.309Z,6.57
2022-10-23T12:12:06.868Z,10.13
2022-10-23T12:14:37.806Z,6.37
2022-10-23T12:17:31.678Z,4.40
2022-10-23T12:20:19.935Z,2.70
2022-10-23T12:23:00.471Z,17.23
2022-10-23T12:25:38.972Z,8.43
2022-10-23T12:28:16.695Z,7.20
2022-10-23T12:33:33.278Z,4.53
2022-10-23T12:36:19.775Z,8.80
2022-10-23T12:38:49.860Z,3.87
2022-10-23T12:41:21.693Z,6.10
2022-10-23T12:43:54.737Z,4.20
2022-10-23T12:46:32.840Z,8.37
2022-10-23T12:49:05.224Z,5.70
2022-10-23T12:51:36.267Z,5.00
2022-10-23T12:54:20.351Z,2.97
2022-10-23T12:56:49.996Z,7.10
2022-10-23T12:59:21.718Z,6.67
2022-10-23T13:01:52.778Z,7.43
2022-10-23T13:04:32.713Z,7.07
2022-10-23T13:07:03.164Z,4.27
2022-10-23T13:09:36.602Z,7.43
2022-10-23T13:12:24.464Z,4.33
2022-10-23T13:14:59.030Z,8.30
2022-10-23T13:17:36.692Z,4.50
2022-10-23T13:20:28.205Z,3.73
2022-10-23T13:23:03.131Z,3.80
2022-10-23T13:25:33.365Z,3.63
2022-10-23T13:28:26.967Z,5.27
2022-10-23T13:31:24.503Z,9.63
2022-10-23T13:34:05.379Z,5.90
2022-10-23T13:36:37.627Z,5.07
2022-10-23T13:39:16.136Z,5.33
2022-10-23T13:41:46.563Z,5.00
2022-10-23T13:44:17.199Z,6.73
2022-10-23T13:46:45.951Z,5.03
2022-10-23T13:49:14.363Z,6.47
2022-10-23T13:51:48.756Z,7.40
2022-10-23T13:54:20.296Z,6.83
2022-10-23T13:56:49.670Z,7.87
2022-10-23T13:59:18.586Z,5.50
2022-10-23T14:01:48.775Z,6.27
2022-10-23T14:04:19.524Z,6.03
2022-10-23T14:06:49.463Z,9.00
2022-10-23T14:09:19.743Z,5.40
2022-10-23T14:11:48.293Z,3.20
2022-10-23T14:14:16.963Z,4.20
2022-10-23T14:16:45.846Z,4.47
2022-10-23T14:19:14.291Z,4.90
2022-10-23T14:21:42.702Z,4.87
2022-10-23T14:24:12.467Z,5.87
2022-10-23T14:26:41.238Z,6.03
2022-10-23T14:29:18.387Z,4.30
2022-10-23T14:31:49.978Z,11.20
2022-10-23T14:34:18.886Z,10.63
2022-10-23T14:37:03.510Z,5.27
2022-10-23T14:39:40.000Z,6.17
2022-10-23T14:42:08.665Z,9.87
2022-10-23T14:47:11.303Z,9.93
2022-10-23T14:49:41.365Z,5.53
2022-10-23T14:52:11.820Z,5.33
2022-10-23T14:54:41.895Z,6.40
2022-10-23T14:57:12.272Z,5.00
2022-10-23T14:59:40.714Z,14.93
2022-10-23T15:02:11.576Z,9.87
2022-10-23T15:04:40.194Z,5.80
2022-10-23T15:07:08.715Z,6.50
2022-10-23T15:09:37.512Z,6.50
2022-10-23T15:12:08.430Z,7.27
2022-10-23T15:14:37.109Z,11.60
2022-10-23T15:17:05.756Z,8.97
2022-10-23T15:19:34.323Z,6.27
2022-10-23T15:22:03.005Z,7.33
2022-10-23T15:24:31.764Z,7.70
2022-10-23T15:27:00.509Z,8.50
2022-10-23T15:29:31.216Z,8.97
2022-10-23T15:32:00.383Z,13.77
2022-10-23T15:34:30.609Z,10.47
2022-10-23T15:36:59.744Z,8.70
2022-10-23T15:39:33.787Z,6.03
2022-10-23T15:42:04.220Z,5.03
2022-10-23T15:44:34.959Z,5.47
2022-10-23T15:47:03.510Z,9.03
2022-10-23T15:49:31.970Z,5.37
2022-10-23T15:52:00.771Z,7.07
2022-10-23T15:54:32.026Z,5.93
2022-10-23T15:57:02.649Z,7.47
2022-10-23T15:59:33.826Z,8.03
2022-10-23T16:02:02.258Z,3.80
2022-10-23T16:04:31.382Z,10.37
2022-10-23T16:07:00.000Z,8.37
2022-10-23T16:09:28.415Z,11.03
2022-10-23T16:11:56.916Z,12.00
2022-10-23T16:14:25.625Z,8.30
2022-10-23T16:16:55.485Z,6.17
2022-10-23T16:19:23.938Z,6.20
2022-10-23T16:21:52.430Z,8.13
2022-10-23T16:24:20.819Z,8.50
2022-10-23T16:26:53.365Z,11.23
2022-10-23T16:29:22.197Z,5.07
2022-10-23T16:31:50.665Z,7.27
2022-10-23T16:34:21.530Z,11.30
2022-10-23T16:36:50.399Z,8.43
2022-10-23T16:39:21.925Z,8.60
2022-10-23T16:42:09.299Z,10.87
2022-10-23T16:44:59.873Z,7.20
2022-10-23T16:47:28.447Z,9.50
2022-10-23T16:49:58.231Z,7.27
2022-10-23T16:52:27.010Z,8.97
2022-10-23T16:54:55.541Z,6.93
2022-10-23T16:57:24.040Z,6.60
2022-10-23T16:59:52.496Z,6.97
2022-10-23T17:02:21.208Z,10.67
2022-10-23T17:04:49.691Z,9.20
2022-10-23T17:07:19.705Z,7.90
2022-10-23T17:09:48.357Z,6.73
2022-10-23T17:12:17.850Z,8.63
2022-10-23T17:14:46.602Z,10.40
2022-10-23T17:17:14.938Z,8.80
2022-10-23T17:19:45.217Z,8.27
2022-10-23T17:22:15.562Z,14.07
2022-10-23T17:24:48.748Z,11.43
2022-10-23T17:27:20.290Z,14.30
2022-10-23T17:29:48.891Z,7.27
2022-10-23T17:32:17.397Z,11.50
2022-10-23T17:34:46.727Z,7.57
2022-10-23T17:37:15.485Z,9.77
2022-10-23T17:39:45.245Z,12.03
2022-10-23T17:42:13.749Z,10.97
2022-10-23T17:44:42.165Z,14.03
2022-10-23T17:47:10.590Z,8.47
2022-10-23T17:49:41.581Z,12.30
2022-10-23T17:52:15.039Z,8.47
2022-10-23T17:54:45.465Z,12.03
2022-10-23T17:57:14.320Z,10.00
2022-10-23T17:59:42.713Z,10.77
2022-10-23T18:02:13.200Z,15.27
2022-10-23T18:04:41.681Z,12.30
2022-10-23T18:07:10.191Z,8.60
2022-10-23T18:09:38.582Z,9.73
2022-10-23T18:12:08.760Z,10.57
2022-10-23T18:14:37.841Z,10.63
2022-10-23T18:17:06.192Z,12.90
2022-10-23T18:19:34.683Z,6.93
2022-10-23T18:22:03.477Z,9.60
2022-10-23T18:24:32.443Z,12.33
2022-10-23T18:27:01.077Z,8.33
2022-10-23T18:29:31.094Z,9.60
2022-10-23T18:32:00.443Z,8.50
2022-10-23T18:34:28.808Z,9.73
2022-10-23T18:36:57.208Z,8.27
2022-10-23T18:39:27.019Z,13.13
2022-10-23T18:41:59.689Z,10.20
2022-10-23T18:44:30.177Z,8.33
2022-10-23T18:47:00.298Z,9.73
2022-10-23T18:49:29.736Z,8.50
2022-10-23T18:51:59.186Z,13.23
2022-10-23T18:54:27.756Z,7.83
2022-10-23T18:56:56.224Z,10.13
2022-10-23T18:59:24.855Z,13.70
2022-10-23T19:01:54.981Z,13.43
2022-10-23T19:04:23.710Z,10.40
2022-10-23T19:06:52.700Z,14.83
2022-10-23T19:09:21.765Z,14.27
2022-10-23T19:11:50.282Z,18.40
2022-10-23T19:14:18.964Z,18.37
2022-10-23T19:16:58.803Z,20.10
2022-10-23T19:19:29.690Z,21.17
2022-10-23T19:21:58.707Z,22.97
2022-10-23T19:24:33.752Z,24.10
2022-10-23T19:27:03.626Z,24.20
2022-10-23T19:29:33.130Z,19.37
2022-10-23T19:32:03.267Z,20.77
2022-10-23T19:34:32.163Z,19.43
2022-10-23T19:37:00.727Z,16.10
2022-10-23T19:39:30.382Z,12.43
2022-10-23T19:41:59.300Z,13.00
2022-10-23T19:44:28.024Z,14.00
2022-10-23T19:46:59.430Z,13.30
2022-10-23T19:49:29.466Z,18.40
2022-10-23T19:51:58.226Z,13.30
2022-10-23T19:54:27.042Z,19.73
2022-10-23T19:56:56.887Z,16.40
2022-10-23T19:59:25.323Z,16.57
2022-10-23T20:01:53.771Z,14.40
2022-10-23T20:04:22.543Z,10.90
2022-10-23T20:06:52.505Z,10.67
2022-10-23T20:09:21.121Z,9.77
2022-10-23T20:11:50.784Z,14.17
2022-10-23T20:14:20.492Z,10.90
2022-10-23T20:16:53.456Z,9.13
2022-10-23T20:19:24.330Z,12.03
2022-10-23T20:21:54.229Z,11.63
2022-10-23T20:24:23.547Z,9.73
2022-10-23T20:26:54.494Z,8.37
2022-10-23T20:29:24.726Z,8.20
2022-10-23T20:31:53.861Z,11.07
2022-10-23T20:34:22.509Z,8.37
2022-10-23T20:36:51.155Z,9.27
2022-10-23T20:39:25.526Z,7.53
2022-10-23T20:41:55.802Z,8.87
2022-10-23T20:44:25.221Z,9.67
2022-10-23T20:46:54.035Z,5.40
2022-10-23T20:49:23.666Z,6.83
2022-10-23T20:51:55.160Z,4.17
2022-10-23T20:54:26.962Z,11.77
2022-10-23T20:56:57.057Z,11.30
2022-10-23T20:59:26.188Z,6.07
2022-10-23T21:01:56.531Z,4.07
2022-10-23T21:04:27.655Z,10.93
2022-10-23T21:07:14.099Z,4.57
2022-10-23T21:09:44.122Z,9.53
2022-10-23T21:12:12.685Z,11.70
2022-10-23T21:14:41.241Z,6.67
2022-10-23T21:17:12.156Z,6.40
2022-10-23T21:19:40.879Z,12.67
2022-10-23T21:22:09.405Z,13.53
2022-10-23T21:24:37.783Z,11.27
2022-10-23T21:27:07.639Z,10.57
2022-10-23T21:29:36.023Z,7.23
2022-10-23T21:32:04.936Z,8.10
2022-10-23T21:34:33.700Z,10.50
2022-10-23T21:37:13.328Z,8.10
2022-10-23T21:39:42.613Z,10.93
2022-10-23T21:42:13.634Z,21.73
2022-10-23T21:44:42.027Z,16.23
2022-10-23T21:47:10.597Z,13.50
2022-10-23T21:49:39.296Z,12.93
2022-10-23T21:52:07.960Z,9.87
2022-10-23T21:54:36.330Z,12.47
2022-10-23T21:57:05.114Z,7.70
2022-10-23T21:59:36.009Z,8.80
2022-10-23T22:02:12.517Z,11.27
2022-10-23T22:04:41.331Z,10.37
2022-10-23T22:07:10.995Z,13.07
2022-10-23T22:09:39.769Z,9.47
2022-10-23T22:12:10.382Z,15.17
2022-10-23T22:14:40.841Z,11.63
2022-10-23T22:17:09.409Z,9.80
2022-10-23T22:19:38.112Z,10.63
2022-10-23T22:22:06.995Z,12.70
2022-10-23T22:24:37.329Z,5.30
2022-10-23T22:27:06.073Z,9.83
2022-10-23T22:29:37.681Z,4.10
2022-10-23T22:32:07.969Z,6.93
2022-10-23T22:37:25.098Z,6.77
2022-10-23T22:39:54.290Z,9.00
2022-10-23T22:42:23.026Z,9.97
2022-10-23T22:44:51.383Z,6.33
2022-10-23T22:47:21.197Z,8.17
2022-10-23T22:49:49.570Z,10.77
2022-10-23T22:52:18.000Z,10.50
2022-10-23T22:54:46.449Z,6.93
2022-10-23T22:57:14.957Z,13.10
2022-10-23T22:59:43.466Z,14.07
2022-10-23T23:02:11.808Z,14.30
2022-10-23T23:04:41.527Z,15.77
2022-10-23T23:07:11.536Z,11.97
2022-10-23T23:09:40.716Z,9.93
2022-10-23T23:12:11.749Z,7.60
2022-10-23T23:14:41.394Z,11.87
2022-10-23T23:17:10.663Z,9.20
2022-10-23T23:19:39.891Z,5.37
2022-10-23T23:22:09.814Z,9.07
2022-10-23T23:24:38.594Z,12.70
2022-10-23T23:27:06.965Z,14.87
2022-10-23T23:29:35.659Z,10.10
2022-10-23T23:32:06.485Z,9.33
2022-10-23T23:34:35.115Z,7.47
2022-10-23T23:37:03.615Z,13.20
2022-10-23T23:39:33.492Z,11.80
2022-10-23T23:42:02.216Z,15.80
2022-10-23T23:44:30.718Z,10.23
2022-10-23T23:46:59.200Z,14.53
2022-10-23T23:49:27.961Z,11.80
2022-10-23T23:51:56.422Z,9.37
2022-10-23T23:54:24.823Z,8.77
2022-10-23T23:56:57.368Z,9.80
2022-10-23T23:59:25.809Z,9.17
